Jackson Hole Airport

KJAC · Wyoming, United States

METAR history KJAC · Jackson Hole Airport

Below you see METARs of the last few days. Select a year to browse through older METARs, from the year 2007 onwards.

April 16, 2024

Time Code Weather Temp. Visibility Ceiling Wind METAR/SPECI
04:56
V
1 °C 10 mi 3,900 ft 360° 360° 0 kt METAR KJAC 161056Z AUTO 00000KT 10SM FEW030 BKN039 OVC060 01/00 A3001 RMK AO2 SLP165 T00060000 FZRANO
03:56
V
1 °C 10 mi 5,500 ft 110° 110° 7 kt METAR KJAC 160956Z AUTO 11007KT 10SM FEW033 OVC055 01/00 A2998 RMK AO2 RAE04 SLP151 P0000 T00110000 FZRANO
02:56
V
1 °C 10 mi 3,700 ft 030° 030° 7 kt METAR KJAC 160856Z AUTO 03007KT 10SM -RA BKN037 OVC044 01/00 A2997 RMK AO2 RAB31 SLP152 P0000 60000 T00060000 53008 FZRANO
02:39
V
2 °C 10 mi 4,000 ft 040° 040° 6 kt METAR KJAC 160839Z AUTO 04006KT 10SM -RA FEW006 OVC040 02/01 A2997 RMK AO2 RAB31 P0000 FZRANO
01:56
V
1 °C 10 mi 4,400 ft 360° 360° 7 kt METAR KJAC 160756Z AUTO 36007KT 10SM OVC044 01/00 A2995 RMK AO2 RAE03 SLP140 P0000 T00110000 FZRANO
00:56
V
2 °C 10 mi 5,000 ft 070° 070° 4 kt METAR KJAC 160656Z AUTO 07004KT 10SM -RA FEW043 BKN050 OVC065 02/00 A2993 RMK AO2 RAB52 SLP132 P0000 T00170000 401000006 FZRANO

April 15, 2024

Time Code Weather Temp. Visibility Ceiling Wind METAR/SPECI
23:56
V
1 °C 10 mi 6,500 ft 360° 360° 0 kt METAR KJAC 160556Z AUTO 00000KT 10SM OVC065 01/00 A2994 RMK AO2 SLP139 60000 T00110000 10056 20011 50001 FZRANO
22:56
V
2 °C 10 mi 6,500 ft 090° 090° 5 kt METAR KJAC 160456Z AUTO 09005KT 10SM BKN065 02/01 A2994 RMK AO2 SLP143 T00220006 FZRANO
21:56
V
3 °C 10 mi 6,500 ft 030° 030° 4 kt METAR KJAC 160356Z AUTO 03004KT 10SM OVC065 03/01 A2995 RMK AO2 SLP150 T00280011
20:56
V
3 °C 10 mi 6,500 ft 360° 360° 0 kt METAR KJAC 160256Z 00000KT 10SM OVC065 03/01 A2994 RMK AO2 SLP145 60000 T00280006 53014
18:56
V
3 °C 10 mi 5,500 ft 010° 010° 14 kt METAR KJAC 160056Z 01014KT 10SM SCT047 OVC055 03/01 A2990 RMK AO2 SLP131 T00330006
17:56
V
6 °C 10 mi 4,900 ft 020° 020° 17 kt METAR KJAC 152356Z 02017KT 10SM BKN049 BKN060 06/01 A2989 RMK AO2 WSHFT 2312 SLP120 T00560011 10100 20056 53016
17:32
V
8 °C 10 mi - 030° 030° 14 kt METAR KJAC 152332Z 03014KT 10SM CLR 08/01 A2986 RMK AO2 WSHFT 2312
16:56
V
8 °C 10 mi - 310° 310° 13 kt METAR KJAC 152256Z 31013KT 10SM CLR 08/00 A2984 RMK AO2 SLP099 T00780000
15:56
V
9 °C 10 mi - 290° 290° 7 kt METAR KJAC 152156Z 29007KT 10SM CLR 09/00 A2983 RMK AO2 SLP097 T00940000
14:56
V
8 °C 10 mi 6,000 ft 090° 090° 7 kt METAR KJAC 152056Z 09007KT 10SM BKN060 08/00 A2983 RMK AO2 SLP097 T00780000 53007
13:56
V
8 °C 10 mi 4,500 ft 070° 070° 8 kt METAR KJAC 151956Z 07008KT 10SM BKN045 OVC055 08/M01 A2983 RMK AO2 SLP093 T00831006
12:56
V
9 °C 10 mi - 020° 020° 6 kt METAR KJAC 151856Z 02006KT 10SM FEW080 SCT110 09/M01 A2981 RMK AO2 SLP080 T00941006
11:56
V
9 °C 10 mi - 360° 360° 0 kt METAR KJAC 151756Z 00000KT 10SM CLR 09/M01 A2981 RMK AO2 SLP077 T00891006 10089 20006 58002
10:56
V
7 °C 10 mi - 140° 140° 4 kt METAR KJAC 151656Z 14004KT 10SM FEW048 SCT090 07/M01 A2982 RMK AO2 SLP086 T00671006
09:56
V
3 °C 10 mi 6,000 ft Var Var 4 kt METAR KJAC 151556Z VRB04KT 10SM SCT048 BKN060 OVC070 03/M01 A2982 RMK AO2 SLP093 T00331006
08:56
V
3 °C 10 mi 11,000 ft 020° 020° 8 kt METAR KJAC 151456Z 02008KT 10SM SCT090 BKN110 03/M01 A2981 RMK AO2 SLP087 T00331006 58001
07:56
V
2 °C 10 mi - 010° 010° 9 kt METAR KJAC 151356Z 01009KT 10SM FEW095 02/M02 A2981 RMK AO2 SLP085 T00171017
06:56
V
3 °C 10 mi - 020° 020° 8 kt METAR KJAC 151256Z 02008KT 10SM CLR 03/M02 A2982 RMK AO2 WSHFT 1149 SLP081 T00281017
06:09
V
2 °C 10 mi - 340° 340° 9 kt METAR KJAC 151209Z AUTO 34009KT 10SM FEW120 02/M02 A2982 RMK AO2 WSHFT 1149 FZRANO
05:56
V
4 °C 10 mi - 020° 020° 12 kt METAR KJAC 151156Z AUTO 02012KT 10SM FEW120 04/M01 A2981 RMK AO2 SLP074 T00441011 10067 20006 58006
04:56
V
3 °C 10 mi 11,000 ft 010° 010° 9 kt METAR KJAC 151056Z AUTO 01009KT 10SM BKN110 03/M02 A2984 RMK AO2 SLP079 T00331017
03:56
V
1 °C 10 mi - 350° 350° 5 kt METAR KJAC 150956Z AUTO 35005KT 10SM CLR 01/M03 A2982 RMK AO2 SLP074 T00111028 FZRANO
02:56
V
3 °C 10 mi - 350° 350° 4 kt METAR KJAC 150856Z AUTO 35004KT 10SM CLR 03/M02 A2984 RMK AO2 SLP079 T00281022 58012
01:56
V
4 °C 10 mi 11,000 ft 010° 010° 4 kt METAR KJAC 150756Z AUTO 01004KT 10SM BKN110 04/M02 A2986 RMK AO2 SLP091 T00391017
00:56
V
4 °C 10 mi - 320° 320° 3 kt METAR KJAC 150656Z AUTO 32003KT 10SM FEW110 04/M02 A2987 RMK AO2 SLP103 T00441022 401781039

April 14, 2024

Time Code Weather Temp. Visibility Ceiling Wind METAR/SPECI
23:56
V
7 °C 10 mi 7,500 ft 150° 150° 6 kt METAR KJAC 150556Z AUTO 15006KT 10SM SCT060 BKN075 OVC090 07/M02 A2988 RMK AO2 SLP106 T00671017 10128 20056 50000
22:56
V
6 °C 10 mi 11,000 ft 020° 020° 5 kt METAR KJAC 150456Z AUTO 02005KT 10SM FEW070 BKN110 06/M02 A2989 RMK AO2 SLP116 T00611022
21:56
V
7 °C 10 mi 8,500 ft 110° 110° 11 kt METAR KJAC 150356Z AUTO 11011KT 10SM FEW055 OVC085 07/M03 A2991 RMK AO2 SLP126 T00721028
20:56
V
9 °C 10 mi 11,000 ft 290° 290° 10 - 17 kt METAR KJAC 150256Z 29010G17KT 10SM BKN110 09/M03 A2988 RMK AO2 SLP117 T00891033 53004
19:56
V
11 °C 10 mi 10,000 ft 340° 340° 8 kt METAR KJAC 150156Z 34008KT 10SM OVC100 11/M04 A2987 RMK AO2 SLP113 T01111044
19:18
V
12 °C 10 mi - 340° 340° 11 - 17 kt METAR KJAC 150118Z 34011G17KT 290V010 10SM SCT120 12/M05 A2985 RMK AO2
18:56
V
12 °C 10 mi - 360° 360° 0 kt METAR KJAC 150056Z 00000KT 10SM CLR 12/M04 A2986 RMK AO2 SLP112 T01221044
17:56
V
13 °C 10 mi - 260° 260° 7 kt METAR KJAC 142356Z 26007KT 10SM FEW120 13/M06 A2987 RMK AO2 SLP112 T01281056 10178 20072 56016
16:56
V
17 °C 10 mi - Var Var 3 kt METAR KJAC 142256Z VRB03KT 10SM SCT120 17/M07 A2987 RMK AO2 SLP101 T01671072
14:56
V
16 °C 10 mi - 360° 360° 0 kt METAR KJAC 142056Z 00000KT 10SM FEW100 16/M07 A2993 RMK AO2 SLP122 T01561067 57021
13:56
V
13 °C 10 mi - Var Var 3 kt METAR KJAC 141956Z VRB03KT 10SM CLR 13/M04 A2995 RMK AO2 SLP134 T01331044
12:56
V
9 °C 10 mi - 360° 360° 0 kt METAR KJAC 141856Z 00000KT 10SM CLR 09/M02 A2998 RMK AO2 SLP148 T00941022
11:56
V
7 °C 10 mi - 360° 360° 0 kt METAR KJAC 141756Z 00000KT 10SM CLR 07/M03 A3000 RMK AO2 SLP163 T00721033 10083 21033 56013
10:56
V
6 °C 10 mi - 360° 360° 0 kt METAR KJAC 141656Z 00000KT 10SM CLR 06/M04 A3002 RMK AO2 SLP169 T00561039
08:56
V
1 °C 10 mi - 050° 050° 4 kt METAR KJAC 141456Z 05004KT 10SM CLR 01/M05 A3005 RMK AO2 SLP188 T00061050 50004
07:56
V
-2 °C 10 mi - 030° 030° 4 kt METAR KJAC 141356Z 03004KT 10SM CLR M02/M05 A3005 RMK AO2 SLP180 T10171050
06:56
V
-3 °C 10 mi - 040° 040° 5 kt METAR KJAC 141256Z 04005KT 10SM CLR M03/M06 A3005 RMK AO2 SLP174 T10331061
05:56
V
-3 °C 10 mi - 010° 010° 5 kt METAR KJAC 141156Z AUTO 01005KT 10SM CLR M03/M06 A3004 RMK AO2 SLP164 T10331056 10011 21039 53003 FZRANO
04:56
V
-2 °C 10 mi - 020° 020° 7 kt METAR KJAC 141056Z AUTO 02007KT 10SM CLR M02/M06 A3003 RMK AO2 SLP165 T10221056 FZRANO
03:56
V
-1 °C 10 mi - 040° 040° 5 kt METAR KJAC 140956Z AUTO 04005KT 10SM CLR M01/M04 A3002 RMK AO2 SLP157 T10111044 FZRANO
02:56
V
-2 °C 10 mi - 030° 030° 6 kt METAR KJAC 140856Z AUTO 03006KT 10SM CLR M02/M05 A3002 RMK AO2 SLP157 T10171050 58004 FZRANO
01:56
V
0 °C 10 mi - 050° 050° 4 kt METAR KJAC 140756Z AUTO 05004KT 10SM CLR 00/M04 A3003 RMK AO2 SLP155 T00001044 FZRANO
00:56
V
1 °C 10 mi - 350° 350° 5 kt METAR KJAC 140656Z AUTO 35005KT 10SM CLR 01/M04 A3004 RMK AO2 SLP162 T00111044 401721033 FZRANO

April 13, 2024

Time Code Weather Temp. Visibility Ceiling Wind METAR/SPECI
23:56
V
1 °C 10 mi - 020° 020° 8 kt METAR KJAC 140556Z AUTO 02008KT 10SM CLR 01/M03 A3004 RMK AO2 SLP171 T00111033 10161 20006 53005 FZRANO
Report a change